createdAt,value
2023-09-27T00:00:31.884Z,53.70
2023-09-27T00:03:00.833Z,54.30
2023-09-27T00:05:31.160Z,54.14
2023-09-27T00:08:00.386Z,54.24
2023-09-27T00:10:29.547Z,54.39
2023-09-27T00:12:58.116Z,54.15
2023-09-27T00:15:26.852Z,54.50
2023-09-27T00:17:55.661Z,54.58
2023-09-27T00:20:25.896Z,54.72
2023-09-27T00:22:56.549Z,54.60
2023-09-27T00:25:25.228Z,54.67
2023-09-27T00:27:53.787Z,55.11
2023-09-27T00:30:22.291Z,55.08
2023-09-27T00:32:50.938Z,55.02
2023-09-27T00:35:22.822Z,55.16
2023-09-27T00:37:53.321Z,55.36
2023-09-27T00:40:26.035Z,55.21
2023-09-27T00:42:55.144Z,55.00
2023-09-27T00:45:23.689Z,55.13
2023-09-27T00:47:53.719Z,55.12
2023-09-27T00:50:22.648Z,55.22
2023-09-27T00:52:51.843Z,55.16
2023-09-27T00:55:23.311Z,55.52
2023-09-27T00:57:55.348Z,55.47
2023-09-27T01:00:24.753Z,55.31
2023-09-27T01:02:54.659Z,55.27
2023-09-27T01:05:23.499Z,55.61
2023-09-27T01:07:52.814Z,55.20
2023-09-27T01:10:22.940Z,55.34
2023-09-27T01:12:52.115Z,55.57
2023-09-27T01:15:20.725Z,55.29
2023-09-27T01:17:56.136Z,55.31
2023-09-27T01:20:24.925Z,55.63
2023-09-27T01:22:59.444Z,55.80
2023-09-27T01:25:31.473Z,55.33
2023-09-27T01:28:00.909Z,55.74
2023-09-27T01:30:34.082Z,55.52
2023-09-27T01:33:06.797Z,55.95
2023-09-27T01:35:36.097Z,55.85
2023-09-27T01:38:07.769Z,55.67
2023-09-27T01:40:39.040Z,55.61
2023-09-27T01:43:08.200Z,56.10
2023-09-27T01:45:37.545Z,55.82
2023-09-27T01:48:07.494Z,56.26
2023-09-27T01:50:37.740Z,55.85
2023-09-27T01:53:08.015Z,55.93
2023-09-27T01:55:37.163Z,56.28
2023-09-27T01:58:06.454Z,55.82
2023-09-27T02:00:35.105Z,56.01
2023-09-27T02:03:05.290Z,56.39
2023-09-27T02:05:34.279Z,56.36
2023-09-27T02:08:03.262Z,56.12
2023-09-27T02:10:33.192Z,56.17
2023-09-27T02:13:01.709Z,56.49
2023-09-27T02:15:30.371Z,56.60
2023-09-27T02:17:58.913Z,56.29
2023-09-27T02:20:27.929Z,56.37
2023-09-27T02:22:57.281Z,56.77
2023-09-27T02:25:26.880Z,56.37
2023-09-27T02:27:56.937Z,56.34
2023-09-27T02:30:25.450Z,56.32
2023-09-27T02:32:54.156Z,56.46
2023-09-27T02:35:23.302Z,56.68
2023-09-27T02:37:51.918Z,56.38
2023-09-27T02:40:20.555Z,56.33
2023-09-27T02:42:49.657Z,56.42
2023-09-27T02:45:19.853Z,56.31
2023-09-27T02:47:48.710Z,56.22
2023-09-27T02:50:17.120Z,56.28
2023-09-27T02:52:46.050Z,56.68
2023-09-27T02:55:15.611Z,56.72
2023-09-27T02:57:50.128Z,56.59
2023-09-27T03:00:20.929Z,56.72
2023-09-27T03:02:50.170Z,56.31
2023-09-27T03:05:19.613Z,56.61
2023-09-27T03:07:49.620Z,56.56
2023-09-27T03:10:19.438Z,56.63
2023-09-27T03:12:50.642Z,56.68
2023-09-27T03:15:21.215Z,56.63
2023-09-27T03:17:50.770Z,56.79
2023-09-27T03:20:21.036Z,56.61
2023-09-27T03:22:50.245Z,56.48
2023-09-27T03:25:19.728Z,56.76
2023-09-27T03:27:49.048Z,56.89
2023-09-27T03:30:20.285Z,56.99
2023-09-27T03:32:48.930Z,56.97
2023-09-27T03:35:18.447Z,56.46
2023-09-27T03:37:48.236Z,56.51
2023-09-27T03:40:20.599Z,56.37
2023-09-27T03:42:49.058Z,56.73
2023-09-27T03:45:18.580Z,56.41
2023-09-27T03:47:49.685Z,56.56
2023-09-27T03:50:18.669Z,56.73
2023-09-27T03:52:47.316Z,57.04
2023-09-27T03:55:15.882Z,56.90
2023-09-27T03:57:45.171Z,56.92
2023-09-27T04:00:18.292Z,57.19
2023-09-27T04:02:49.037Z,56.70
2023-09-27T04:05:23.744Z,56.81
2023-09-27T04:07:52.564Z,56.87
2023-09-27T04:10:22.009Z,56.87
2023-09-27T04:12:50.455Z,57.05
2023-09-27T04:15:19.161Z,56.91
2023-09-27T04:17:49.145Z,56.83
2023-09-27T04:20:19.938Z,56.81
2023-09-27T04:22:50.159Z,57.09
2023-09-27T04:25:20.168Z,56.97
2023-09-27T04:27:51.995Z,57.12
2023-09-27T04:30:22.912Z,57.17
2023-09-27T04:32:54.057Z,57.46
2023-09-27T04:35:23.722Z,56.97
2023-09-27T04:37:52.464Z,57.27
2023-09-27T04:40:21.524Z,57.22
2023-09-27T04:42:50.245Z,57.20
2023-09-27T04:45:18.925Z,57.36
2023-09-27T04:47:47.618Z,57.30
2023-09-27T04:50:17.850Z,57.32
2023-09-27T04:52:46.647Z,57.42
2023-09-27T04:55:16.182Z,57.33
2023-09-27T04:57:44.813Z,57.63
2023-09-27T05:00:20.219Z,57.36
2023-09-27T05:02:49.567Z,57.34
2023-09-27T05:05:19.946Z,57.33
2023-09-27T05:07:49.487Z,57.62
2023-09-27T05:10:18.406Z,57.31
2023-09-27T05:12:48.198Z,57.62
2023-09-27T05:15:17.558Z,57.58
2023-09-27T05:17:46.221Z,57.45
2023-09-27T05:20:15.549Z,57.63
2023-09-27T05:22:45.517Z,57.20
2023-09-27T05:25:15.073Z,57.40
2023-09-27T05:27:43.726Z,57.26
2023-09-27T05:30:13.346Z,57.16
2023-09-27T05:32:43.709Z,57.19
2023-09-27T05:35:13.150Z,57.41
2023-09-27T05:37:44.675Z,57.34
2023-09-27T05:40:14.546Z,56.98
2023-09-27T05:42:43.648Z,56.86
2023-09-27T05:45:13.605Z,56.58
2023-09-27T05:47:43.089Z,56.19
2023-09-27T05:50:13.957Z,55.83
2023-09-27T05:52:45.120Z,55.74
2023-09-27T05:55:14.364Z,55.46
2023-09-27T05:57:43.178Z,54.98
2023-09-27T06:00:24.878Z,54.95
2023-09-27T06:02:53.884Z,54.76
2023-09-27T06:05:23.122Z,54.67
2023-09-27T06:07:54.089Z,54.92
2023-09-27T06:10:23.480Z,54.32
2023-09-27T06:12:52.108Z,54.67
2023-09-27T06:15:21.621Z,54.37
2023-09-27T06:17:51.159Z,54.22
2023-09-27T06:20:23.734Z,54.05
2023-09-27T06:22:54.923Z,53.96
2023-09-27T06:25:30.309Z,54.04
2023-09-27T06:27:59.108Z,53.87
2023-09-27T06:30:27.713Z,53.47
2023-09-27T06:32:56.461Z,53.65
2023-09-27T06:35:25.914Z,53.60
2023-09-27T06:37:56.043Z,53.71
2023-09-27T06:40:25.871Z,53.60
2023-09-27T06:42:56.242Z,53.17
2023-09-27T06:45:25.248Z,53.26
2023-09-27T06:47:53.946Z,53.20
2023-09-27T06:50:23.490Z,52.88
2023-09-27T06:52:57.398Z,53.14
2023-09-27T06:55:33.578Z,52.94
2023-09-27T06:58:02.235Z,53.08
2023-09-27T07:00:30.922Z,52.89
2023-09-27T07:02:59.784Z,52.70
2023-09-27T07:05:28.497Z,52.98
2023-09-27T07:07:57.163Z,52.55
2023-09-27T07:10:26.501Z,52.40
2023-09-27T07:12:56.655Z,52.17
2023-09-27T07:15:25.212Z,52.31
2023-09-27T07:17:53.970Z,51.83
2023-09-27T07:20:28.679Z,51.84
2023-09-27T07:22:58.391Z,51.51
2023-09-27T07:25:29.951Z,51.42
2023-09-27T07:28:00.135Z,51.29
2023-09-27T07:30:28.750Z,51.12
2023-09-27T07:32:57.932Z,50.86
2023-09-27T07:35:30.302Z,50.72
2023-09-27T07:38:00.196Z,50.52
2023-09-27T07:40:29.304Z,50.38
2023-09-27T07:42:59.962Z,50.18
2023-09-27T07:45:32.050Z,50.05
2023-09-27T07:48:01.112Z,49.83
2023-09-27T07:50:32.864Z,49.54
2023-09-27T07:53:04.801Z,49.28
2023-09-27T07:55:33.756Z,49.13
2023-09-27T07:58:05.161Z,48.87
2023-09-27T08:00:34.717Z,48.85
2023-09-27T08:03:04.325Z,48.34
2023-09-27T08:05:33.095Z,48.09
2023-09-27T08:08:01.672Z,47.50
2023-09-27T08:10:30.806Z,47.57
2023-09-27T08:12:59.373Z,47.37
2023-09-27T08:15:29.880Z,46.63
2023-09-27T08:17:58.826Z,46.71
2023-09-27T08:20:28.178Z,46.00
2023-09-27T08:22:57.303Z,46.14
2023-09-27T08:25:26.239Z,45.71
2023-09-27T08:27:54.780Z,45.81
2023-09-27T08:30:23.701Z,45.02
2023-09-27T08:32:53.879Z,45.09
2023-09-27T08:35:22.705Z,44.68
2023-09-27T08:37:51.376Z,44.75
2023-09-27T08:40:20.610Z,44.59
2023-09-27T08:42:52.605Z,44.55
2023-09-27T08:45:24.585Z,44.46
2023-09-27T08:47:55.673Z,44.32
2023-09-27T08:50:25.306Z,44.27
2023-09-27T08:52:54.349Z,44.11
2023-09-27T08:55:23.241Z,44.21
2023-09-27T08:57:53.619Z,43.95
2023-09-27T09:00:28.091Z,43.61
2023-09-27T09:03:02.706Z,43.30
2023-09-27T09:05:32.996Z,43.43
2023-09-27T09:08:05.559Z,43.19
2023-09-27T09:10:34.892Z,43.32
2023-09-27T09:13:05.144Z,43.44
2023-09-27T09:15:38.034Z,42.99
2023-09-27T09:18:13.130Z,42.85
2023-09-27T09:20:56.053Z,43.33
2023-09-27T09:23:34.661Z,43.33
2023-09-27T09:26:07.317Z,42.98
2023-09-27T09:28:37.745Z,43.15
2023-09-27T09:31:07.049Z,43.29
2023-09-27T09:33:39.712Z,42.84
2023-09-27T09:36:08.727Z,43.18
2023-09-27T09:38:37.455Z,42.69
2023-09-27T09:41:06.442Z,42.49
2023-09-27T09:43:36.772Z,42.73
2023-09-27T09:46:07.811Z,42.82
2023-09-27T09:48:39.976Z,42.82
2023-09-27T09:51:10.135Z,42.81
2023-09-27T09:53:44.197Z,42.71
2023-09-27T09:58:56.886Z,42.27
2023-09-27T10:01:30.966Z,42.03
2023-09-27T10:04:05.514Z,42.02
2023-09-27T10:09:29.663Z,42.02
2023-09-27T10:11:58.942Z,41.59
2023-09-27T10:14:27.881Z,41.46
2023-09-27T10:16:56.528Z,41.04
2023-09-27T10:19:31.013Z,41.31
2023-09-27T10:22:08.969Z,40.94
2023-09-27T10:24:44.581Z,40.57
2023-09-27T10:27:13.225Z,40.68
2023-09-27T10:29:57.427Z,40.64
2023-09-27T10:32:26.133Z,39.89
2023-09-27T10:34:56.076Z,39.51
2023-09-27T10:38:00.690Z,39.70
2023-09-27T10:40:29.425Z,39.03
2023-09-27T10:42:57.930Z,38.05
2023-09-27T10:45:26.885Z,37.27
2023-09-27T10:47:56.501Z,36.45
2023-09-27T10:50:31.902Z,35.98
2023-09-27T10:53:02.043Z,35.35
2023-09-27T10:55:41.412Z,35.14
2023-09-27T10:58:12.425Z,34.06
2023-09-27T11:00:53.611Z,33.76
2023-09-27T11:03:23.090Z,32.73
2023-09-27T11:05:53.708Z,32.06
2023-09-27T11:08:24.534Z,30.86
2023-09-27T11:10:58.154Z,30.73
2023-09-27T11:13:30.761Z,29.79
2023-09-27T11:16:10.013Z,29.40
2023-09-27T11:18:45.705Z,28.11
2023-09-27T11:21:16.639Z,27.77
2023-09-27T11:23:55.915Z,27.51
2023-09-27T11:26:26.213Z,27.05
2023-09-27T11:28:59.992Z,26.75
2023-09-27T11:31:31.050Z,25.39
2023-09-27T11:34:17.072Z,25.47
2023-09-27T11:36:49.274Z,25.01
2023-09-27T11:39:19.772Z,24.41
2023-09-27T11:41:49.030Z,23.54
2023-09-27T11:44:18.759Z,23.07
2023-09-27T11:46:48.818Z,22.93
2023-09-27T11:49:19.357Z,22.89
2023-09-27T11:51:49.280Z,21.99
2023-09-27T11:54:17.923Z,21.78
2023-09-27T11:56:48.354Z,21.24
2023-09-27T11:59:17.041Z,20.35
2023-09-27T12:01:45.735Z,19.92
2023-09-27T12:04:14.525Z,19.95
2023-09-27T12:06:43.600Z,19.36
2023-09-27T12:09:13.765Z,19.11
2023-09-27T12:11:42.501Z,18.63
2023-09-27T12:14:11.058Z,17.77
2023-09-27T12:16:39.718Z,17.47
2023-09-27T12:19:08.495Z,17.54
2023-09-27T12:21:38.486Z,16.59
2023-09-27T12:24:07.916Z,16.59
2023-09-27T12:26:37.989Z,16.72
2023-09-27T12:29:06.612Z,16.93
2023-09-27T12:31:35.167Z,16.22
2023-09-27T12:34:03.766Z,16.13
2023-09-27T12:36:32.297Z,15.57
2023-09-27T12:39:00.849Z,15.36
2023-09-27T12:41:29.467Z,15.72
2023-09-27T12:43:59.403Z,15.54
2023-09-27T12:46:29.869Z,15.46
2023-09-27T12:48:58.411Z,14.94
2023-09-27T12:51:35.316Z,15.06
2023-09-27T12:54:11.672Z,14.80
2023-09-27T12:56:40.431Z,14.49
2023-09-27T12:59:10.300Z,14.46
2023-09-27T13:01:40.634Z,14.09
2023-09-27T13:04:10.718Z,14.07
2023-09-27T13:06:39.513Z,13.97
2023-09-27T13:09:08.242Z,13.67
2023-09-27T13:11:36.960Z,14.04
2023-09-27T13:14:05.704Z,13.64
2023-09-27T13:16:35.557Z,13.57
2023-09-27T13:19:04.231Z,13.75
2023-09-27T13:21:32.854Z,13.88
2023-09-27T13:24:01.342Z,13.95
2023-09-27T13:26:29.843Z,13.67
2023-09-27T13:28:58.401Z,13.71
2023-09-27T13:31:33.192Z,13.86
2023-09-27T13:34:10.271Z,14.25
2023-09-27T13:36:42.559Z,14.23
2023-09-27T13:39:15.585Z,13.93
2023-09-27T13:41:45.758Z,14.20
2023-09-27T13:44:15.445Z,13.78
2023-09-27T13:46:45.598Z,14.06
2023-09-27T13:49:15.570Z,14.15
2023-09-27T13:51:44.725Z,14.86
2023-09-27T13:54:15.549Z,15.34
2023-09-27T13:56:44.097Z,15.82
2023-09-27T13:59:12.632Z,16.13
2023-09-27T14:01:41.394Z,16.67
2023-09-27T14:04:09.995Z,17.62
2023-09-27T14:06:40.138Z,17.81
2023-09-27T14:09:08.693Z,18.37
2023-09-27T14:11:37.652Z,18.66
2023-09-27T14:14:06.324Z,18.98
2023-09-27T14:16:34.887Z,19.50
2023-09-27T14:19:03.572Z,19.77
2023-09-27T14:21:34.044Z,20.11
2023-09-27T14:24:04.743Z,20.16
2023-09-27T14:26:33.329Z,20.40
2023-09-27T14:29:01.922Z,21.00
2023-09-27T14:31:30.460Z,21.35
2023-09-27T14:34:02.074Z,21.04
2023-09-27T14:36:31.731Z,21.44
2023-09-27T14:39:00.730Z,22.12
2023-09-27T14:41:30.666Z,21.97
2023-09-27T14:44:03.425Z,22.44
2023-09-27T14:46:34.938Z,22.84
2023-09-27T14:49:04.293Z,23.03
2023-09-27T14:51:32.826Z,22.60
2023-09-27T14:54:01.460Z,23.13
2023-09-27T14:56:31.413Z,23.00
2023-09-27T14:59:02.259Z,23.56
2023-09-27T15:01:31.399Z,23.43
2023-09-27T15:04:00.052Z,23.46
2023-09-27T15:06:28.755Z,23.95
2023-09-27T15:08:57.255Z,23.68
2023-09-27T15:11:26.459Z,24.07
2023-09-27T15:13:59.242Z,24.47
2023-09-27T15:16:27.953Z,24.64
2023-09-27T15:18:56.526Z,24.40
2023-09-27T15:21:25.091Z,24.84
2023-09-27T15:23:54.001Z,24.69
2023-09-27T15:26:22.719Z,25.02
2023-09-27T15:28:51.261Z,24.80
2023-09-27T15:31:21.282Z,25.16
2023-09-27T15:33:50.642Z,24.97
2023-09-27T15:36:19.194Z,25.06
2023-09-27T15:38:47.718Z,24.96
2023-09-27T15:41:19.621Z,25.25
2023-09-27T15:43:49.311Z,25.07
2023-09-27T15:46:19.621Z,25.33
2023-09-27T15:48:49.823Z,25.58
2023-09-27T15:51:18.339Z,25.52
2023-09-27T15:53:46.844Z,25.46
2023-09-27T15:56:15.420Z,25.50
2023-09-27T15:58:43.943Z,25.69
2023-09-27T16:01:13.253Z,25.77
2023-09-27T16:03:41.943Z,25.80
2023-09-27T16:06:11.883Z,26.14
2023-09-27T16:08:40.457Z,26.12
2023-09-27T16:11:08.947Z,26.28
2023-09-27T16:13:37.573Z,26.39
2023-09-27T16:16:06.441Z,26.36
2023-09-27T16:18:34.995Z,26.47
2023-09-27T16:21:03.546Z,26.61
2023-09-27T16:23:33.520Z,26.84
2023-09-27T16:26:02.079Z,26.85
2023-09-27T16:28:30.676Z,27.02
2023-09-27T16:30:59.823Z,27.19
2023-09-27T16:33:28.555Z,27.24
2023-09-27T16:35:57.247Z,27.41
2023-09-27T16:38:26.851Z,27.51
2023-09-27T16:40:57.195Z,27.68
2023-09-27T16:43:26.304Z,27.96
2023-09-27T16:45:55.104Z,27.74
2023-09-27T16:48:24.928Z,27.88
2023-09-27T16:50:54.884Z,28.13
2023-09-27T16:53:23.463Z,28.20
2023-09-27T16:55:52.491Z,28.05
2023-09-27T16:58:23.448Z,28.36
2023-09-27T17:00:53.339Z,28.64
2023-09-27T17:03:22.998Z,28.81
2023-09-27T17:05:53.292Z,28.56
2023-09-27T17:08:22.248Z,28.68
2023-09-27T17:10:51.658Z,29.13
2023-09-27T17:13:23.815Z,29.08
2023-09-27T17:15:53.811Z,29.09
2023-09-27T17:18:23.723Z,29.09
2023-09-27T17:20:53.601Z,29.54
2023-09-27T17:23:22.848Z,29.48
2023-09-27T17:25:54.219Z,29.65
2023-09-27T17:28:26.939Z,29.90
2023-09-27T17:30:59.012Z,29.58
2023-09-27T17:33:29.377Z,29.59
2023-09-27T17:36:03.116Z,29.89
2023-09-27T17:38:33.272Z,29.97
2023-09-27T17:41:03.324Z,30.12
2023-09-27T17:43:35.660Z,29.70
2023-09-27T17:46:21.341Z,29.94
2023-09-27T17:48:52.316Z,29.90
2023-09-27T17:51:23.225Z,30.26
2023-09-27T17:53:54.056Z,29.96
2023-09-27T17:56:30.101Z,29.88
2023-09-27T17:59:02.213Z,30.43
2023-09-27T18:01:33.879Z,30.07
2023-09-27T18:04:04.671Z,30.18
2023-09-27T18:06:36.312Z,30.02
2023-09-27T18:09:07.874Z,29.97
2023-09-27T18:11:37.302Z,30.57
2023-09-27T18:14:10.474Z,30.07
2023-09-27T18:16:42.212Z,30.69
2023-09-27T18:19:14.731Z,30.27
2023-09-27T18:21:47.183Z,30.71
2023-09-27T18:24:17.188Z,30.70
2023-09-27T18:26:48.580Z,30.68
2023-09-27T18:29:19.616Z,31.09
2023-09-27T18:31:50.747Z,31.20
2023-09-27T18:34:21.862Z,30.98
2023-09-27T18:36:54.505Z,31.56
2023-09-27T18:39:26.132Z,31.62
2023-09-27T18:41:58.636Z,31.68
2023-09-27T18:44:32.170Z,31.61
2023-09-27T18:47:04.038Z,31.74
2023-09-27T18:49:34.741Z,32.09
2023-09-27T18:52:07.071Z,32.20
2023-09-27T18:54:37.789Z,31.76
2023-09-27T18:57:10.965Z,31.84
2023-09-27T18:59:43.904Z,32.48
2023-09-27T19:02:16.702Z,32.65
2023-09-27T19:04:47.538Z,32.30
2023-09-27T19:07:20.257Z,32.90
2023-09-27T19:09:51.099Z,32.59
2023-09-27T19:12:23.793Z,33.03
2023-09-27T19:15:00.096Z,32.96
2023-09-27T19:17:32.544Z,33.11
2023-09-27T19:20:07.304Z,33.13
2023-09-27T19:22:42.180Z,33.66
2023-09-27T19:25:14.375Z,33.47
2023-09-27T19:27:43.861Z,33.96
2023-09-27T19:30:17.382Z,34.05
2023-09-27T19:32:48.355Z,33.75
2023-09-27T19:35:19.949Z,34.28
2023-09-27T19:37:52.754Z,34.14
2023-09-27T19:40:24.870Z,34.32
2023-09-27T19:42:56.495Z,34.60
2023-09-27T19:45:30.219Z,34.66
2023-09-27T19:47:59.717Z,35.04
2023-09-27T19:50:29.501Z,34.85
2023-09-27T19:52:59.842Z,35.26
2023-09-27T19:55:32.431Z,35.28
2023-09-27T19:58:03.036Z,35.20
2023-09-27T20:00:34.100Z,35.48
2023-09-27T20:03:04.728Z,35.20
2023-09-27T20:05:34.613Z,35.51
2023-09-27T20:08:04.475Z,35.16
2023-09-27T20:10:35.009Z,35.20
2023-09-27T20:13:06.323Z,35.35
2023-09-27T20:15:37.813Z,35.43
2023-09-27T20:18:08.401Z,35.39
2023-09-27T20:20:37.856Z,35.51
2023-09-27T20:23:07.782Z,35.66
2023-09-27T20:25:37.390Z,35.44
2023-09-27T20:28:08.017Z,35.42
2023-09-27T20:30:38.955Z,35.36
2023-09-27T20:33:08.131Z,35.70
2023-09-27T20:35:38.002Z,35.48
2023-09-27T20:38:09.474Z,35.68
2023-09-27T20:40:38.618Z,35.69
2023-09-27T20:43:07.231Z,35.77
2023-09-27T20:45:37.288Z,35.82
2023-09-27T20:48:06.945Z,35.88
2023-09-27T20:50:35.528Z,35.85
2023-09-27T20:53:04.163Z,36.02
2023-09-27T20:55:32.928Z,36.13
2023-09-27T20:58:02.991Z,36.07
2023-09-27T21:00:31.829Z,36.22
2023-09-27T21:03:02.691Z,36.06
2023-09-27T21:05:34.035Z,36.30
2023-09-27T21:08:02.631Z,36.22
2023-09-27T21:10:31.228Z,36.32
2023-09-27T21:13:00.173Z,36.48
2023-09-27T21:15:28.758Z,36.52
2023-09-27T21:17:57.354Z,36.51
2023-09-27T21:20:27.254Z,36.65
2023-09-27T21:22:55.737Z,36.70
2023-09-27T21:25:24.473Z,36.71
2023-09-27T21:27:52.954Z,36.72
2023-09-27T21:30:21.890Z,36.90
2023-09-27T21:32:50.873Z,36.89
2023-09-27T21:35:19.482Z,36.91
2023-09-27T21:37:49.637Z,36.84
2023-09-27T21:40:19.262Z,37.13
2023-09-27T21:42:47.788Z,36.89
2023-09-27T21:45:16.487Z,37.18
2023-09-27T21:47:45.033Z,36.93
2023-09-27T21:50:14.466Z,37.13
2023-09-27T21:52:43.036Z,36.98
2023-09-27T21:55:13.319Z,37.07
2023-09-27T21:57:41.985Z,37.16
2023-09-27T22:00:21.407Z,37.04
2023-09-27T22:02:50.199Z,37.03
2023-09-27T22:05:20.638Z,36.96
2023-09-27T22:07:49.193Z,36.96
2023-09-27T22:10:19.749Z,37.07
2023-09-27T22:12:49.761Z,37.10
2023-09-27T22:15:18.556Z,36.95
2023-09-27T22:17:50.615Z,37.04
2023-09-27T22:20:20.025Z,37.08
2023-09-27T22:22:49.278Z,36.87
2023-09-27T22:25:20.224Z,37.27
2023-09-27T22:27:50.283Z,37.14
2023-09-27T22:30:19.786Z,37.25
2023-09-27T22:32:50.981Z,37.33
2023-09-27T22:35:27.120Z,37.28
2023-09-27T22:37:57.160Z,37.08
2023-09-27T22:40:27.203Z,37.24
2023-09-27T22:42:56.641Z,37.37
2023-09-27T22:45:36.194Z,37.36
2023-09-27T22:48:06.780Z,37.54
2023-09-27T22:50:45.845Z,37.44
2023-09-27T22:53:15.824Z,37.42
2023-09-27T22:55:51.330Z,37.75
2023-09-27T22:58:20.434Z,37.84
2023-09-27T23:00:58.227Z,37.76
2023-09-27T23:03:29.891Z,37.82
2023-09-27T23:06:02.561Z,37.98
2023-09-27T23:08:38.981Z,37.86
2023-09-27T23:11:10.332Z,37.98
2023-09-27T23:13:45.813Z,38.32
2023-09-27T23:16:37.504Z,38.02
2023-09-27T23:19:06.378Z,38.29
2023-09-27T23:21:34.255Z,38.33
2023-09-27T23:24:26.761Z,38.35
2023-09-27T23:27:05.671Z,38.41
2023-09-27T23:29:37.599Z,38.64
2023-09-27T23:32:23.972Z,38.41
2023-09-27T23:34:55.087Z,38.59
2023-09-27T23:37:32.296Z,38.56
2023-09-27T23:40:01.785Z,38.51
2023-09-27T23:42:35.875Z,38.86
2023-09-27T23:45:10.563Z,38.52
2023-09-27T23:47:44.988Z,38.78
2023-09-27T23:50:17.146Z,38.95
2023-09-27T23:52:47.991Z,38.67
2023-09-27T23:55:18.685Z,38.99
2023-09-27T23:57:49.283Z,38.95
